Time;durP1;ratioP1;P1;durP2;ratioP2;P2;SDS_P1;SDS_P2;PMS_P1;PMS_P2;Temp;Humidity;BMP_temperature;BMP_pressure;BME280_temperature;BME280_humidity;BME280_pressure;Samples;Min_cycle;Max_cycle;Signal;HPM_P1;HPM_P2
2021/12/08 00:00:53;;;;;;;;;2.00;1.00;;;;;9.01;58.76;99099.38;5072710;28;47387;-75
2021/12/08 00:03:20;;;;;;;;;1.00;1.00;;;;;8.98;58.66;99110.78;5074793;27;45450;-75
2021/12/08 00:05:45;;;;;;;;;2.00;2.00;;;;;8.96;59.04;99111.03;5075139;28;45379;-76
2021/12/08 00:08:14;;;;;;;;;1.00;0.00;;;;;8.93;58.57;99102.50;5073860;28;45478;-78
2021/12/08 00:13:00;;;;;;;;;0.67;0.67;;;;;8.89;59.10;99102.16;5066319;27;46173;-76
2021/12/08 00:13:28;;;;;;;;;0.00;0.00;;;;;8.88;58.90;99108.66;5075594;27;45933;-82
2021/12/08 00:15:57;;;;;;;;;1.00;0.00;;;;;8.84;59.05;99083.69;5071756;28;45869;-80
2021/12/08 00:18:26;;;;;;;;;0.00;0.00;;;;;8.86;58.91;99086.19;5077045;27;45795;-80
2021/12/08 00:20:56;;;;;;;;;3.00;3.00;;;;;8.79;59.15;99088.25;5079300;27;45394;-79
2021/12/08 00:23:23;;;;;;;;;2.00;1.00;;;;;8.84;59.06;99111.03;5074564;28;45778;-78
2021/12/08 00:25:49;;;;;;;;;1.00;0.00;;;;;8.78;59.30;99100.22;5073995;27;45491;-80
2021/12/08 00:28:15;;;;;;;;;1.33;1.33;;;;;8.77;59.17;99106.75;5074891;27;45766;-79
2021/12/08 00:30:44;;;;;;;;;1.33;0.00;;;;;8.74;59.72;99088.09;5056304;28;46162;-83
2021/12/08 00:33:10;;;;;;;;;2.00;0.33;;;;;8.83;59.12;99092.13;5075982;28;45472;-85
2021/12/08 00:35:38;;;;;;;;;1.00;0.00;;;;;8.79;58.98;99086.31;5074960;27;45712;-82
2021/12/08 00:38:04;;;;;;;;;0.67;0.67;;;;;8.68;58.96;99073.47;5078445;27;45443;-80
2021/12/08 00:40:31;;;;;;;;;0.67;0.00;;;;;8.82;59.53;99106.91;5055932;27;46697;-82
2021/12/08 00:42:57;;;;;;;;;1.00;0.00;;;;;8.78;59.19;99111.16;5058464;28;45967;-82
2021/12/08 00:45:23;;;;;;;;;4.00;0.00;;;;;8.78;59.87;99105.69;5071658;27;45410;-80
2021/12/08 00:47:50;;;;;;;;;3.00;0.00;;;;;8.85;59.84;99125.56;5077827;27;45901;-82
2021/12/08 00:50:17;;;;;;;;;1.67;0.00;;;;;8.84;59.17;99119.22;5075079;28;45827;-82
2021/12/08 00:52:43;;;;;;;;;2.67;0.00;;;;;8.89;59.17;99128.63;5079217;27;45175;-83
2021/12/08 00:55:11;;;;;;;;;0.00;0.00;;;;;8.92;59.12;99131.75;5061789;27;45565;-82
2021/12/08 00:57:37;;;;;;;;;1.00;0.00;;;;;8.95;58.83;99138.59;5060750;28;45725;-82
2021/12/08 01:00:21;;;;;;;;;0.67;0.00;;;;;8.90;59.42;99130.31;5079047;27;46266;-81
2021/12/08 01:02:47;;;;;;;;;0.00;0.00;;;;;9.01;59.01;99138.50;5080293;27;45832;-82
2021/12/08 01:05:16;;;;;;;;;1.67;0.00;;;;;9.06;58.88;99123.28;5079998;27;45429;-79
2021/12/08 01:07:43;;;;;;;;;2.00;1.00;;;;;9.07;58.41;99119.47;5073610;27;45516;-78
2021/12/08 01:10:16;;;;;;;;;2.00;0.33;;;;;9.06;58.65;99115.09;5080591;27;46613;-83
2021/12/08 01:12:42;;;;;;;;;1.00;1.00;;;;;8.89;58.63;99104.03;5076987;28;45746;-84
2021/12/08 01:15:08;;;;;;;;;0.00;0.00;;;;;8.98;58.83;99113.53;5058460;28;44788;-84
2021/12/08 01:17:34;;;;;;;;;1.00;0.00;;;;;8.84;58.42;99110.22;5076437;27;45823;-82
2021/12/08 01:19:59;;;;;;;;;0.00;0.00;;;;;8.87;57.88;99107.00;5081599;27;45396;-83
2021/12/08 01:22:25;;;;;;;;;0.00;0.00;;;;;8.80;58.69;99119.94;5080098;28;45386;-82
2021/12/08 01:24:50;;;;;;;;;1.00;1.00;;;;;8.76;58.79;99102.38;5079336;27;45471;-82
2021/12/08 01:27:16;;;;;;;;;0.00;0.00;;;;;8.74;58.20;99099.88;5059532;28;46105;-82
2021/12/08 01:29:42;;;;;;;;;0.00;0.00;;;;;8.63;58.54;99085.13;5075505;28;47080;-82
2021/12/08 01:32:07;;;;;;;;;2.00;1.00;;;;;8.61;58.69;99076.34;5073493;27;45489;-81
2021/12/08 01:34:33;;;;;;;;;0.00;0.00;;;;;8.63;58.15;99076.09;5073075;28;45478;-80
2021/12/08 01:36:59;;;;;;;;;0.33;0.33;;;;;8.60;58.61;99066.47;5067369;28;46532;-78
2021/12/08 01:39:25;;;;;;;;;0.00;0.00;;;;;8.48;58.93;99057.44;5075059;27;45421;-79
2021/12/08 01:41:52;;;;;;;;;0.00;0.00;;;;;8.41;58.21;99060.28;5073582;28;46730;-78
2021/12/08 01:47:02;;;;;;;;;0.00;0.00;;;;;8.40;59.29;99110.50;5071867;28;45825;-76
2021/12/08 01:49:27;;;;;;;;;0.00;0.00;;;;;8.33;59.07;99101.59;5071765;28;45708;-79
2021/12/08 01:51:53;;;;;;;;;1.00;0.00;;;;;8.30;59.16;99116.53;5069195;28;45714;-82
2021/12/08 01:54:19;;;;;;;;;0.00;0.00;;;;;8.35;59.26;99145.88;5069756;28;45651;-77
2021/12/08 01:56:44;;;;;;;;;1.00;1.00;;;;;8.31;59.02;99140.06;5064564;28;45818;-80
2021/12/08 01:59:10;;;;;;;;;0.00;0.00;;;;;8.28;58.91;99142.44;5046090;28;47274;-81
2021/12/08 02:01:40;;;;;;;;;0.00;0.00;;;;;8.29;58.80;99135.88;5064519;28;45458;-78
2021/12/08 02:04:06;;;;;;;;;1.00;0.00;;;;;8.22;58.57;99136.00;5063372;28;45513;-78
2021/12/08 02:06:38;;;;;;;;;1.00;0.00;;;;;8.28;59.31;99145.16;5064023;28;45760;-79
2021/12/08 02:09:06;;;;;;;;;0.00;0.00;;;;;8.18;59.28;99136.72;5062734;28;46193;-73
2021/12/08 02:11:32;;;;;;;;;1.00;1.00;;;;;8.10;59.27;99122.31;5071402;28;45637;-74
2021/12/08 02:14:01;;;;;;;;;1.00;0.00;;;;;8.19;58.76;99147.41;5069282;28;45342;-74
2021/12/08 02:16:27;;;;;;;;;1.00;1.00;;;;;8.19;59.46;99160.19;5075289;27;45717;-74
2021/12/08 02:18:53;;;;;;;;;1.33;0.33;;;;;8.20;59.27;99164.59;5058263;27;45899;-74
2021/12/08 02:21:32;;;;;;;;;1.00;0.00;;;;;8.15;59.04;99157.13;5065744;28;45526;-77
2021/12/08 02:24:01;;;;;;;;;0.00;0.00;;;;;8.06;59.19;99142.94;5064630;28;45594;-73
2021/12/08 02:26:28;;;;;;;;;1.67;1.00;;;;;8.09;59.93;99155.31;5071838;28;45740;-73
2021/12/08 02:28:55;;;;;;;;;3.67;0.00;;;;;8.09;59.73;99163.50;5063196;28;45571;-75
2021/12/08 02:31:31;;;;;;;;;0.00;0.00;;;;;8.06;60.28;99170.25;5071035;28;46891;-78
2021/12/08 02:47:53;;;;;;;;;1.00;1.00;;;;;7.87;60.49;99155.81;5072322;28;45770;-73
2021/12/08 02:50:20;;;;;;;;;1.67;0.67;;;;;7.93;61.08;99174.00;5060926;27;45749;-74
2021/12/08 02:52:46;;;;;;;;;0.00;0.00;;;;;7.87;60.93;99166.72;5076230;27;45916;-76
2021/12/08 02:55:11;;;;;;;;;3.00;0.00;;;;;7.88;60.07;99179.31;5068467;27;45914;-80
2021/12/08 02:57:37;;;;;;;;;1.00;0.00;;;;;7.86;60.26;99167.81;5064337;28;46944;-78
2021/12/08 03:00:07;;;;;;;;;3.00;0.00;;;;;7.90;61.27;99173.63;5068136;27;45855;-79
2021/12/08 03:02:33;;;;;;;;;1.00;0.00;;;;;7.91;60.18;99167.94;5064352;28;45416;-81
2021/12/08 03:04:59;;;;;;;;;0.00;0.00;;;;;7.90;60.58;99166.28;5072391;28;45713;-82
2021/12/08 03:07:24;;;;;;;;;2.00;1.00;;;;;7.78;60.24;99149.00;5067547;27;45717;-80
2021/12/08 03:09:49;;;;;;;;;2.67;1.67;;;;;7.85;60.13;99163.41;5073087;28;45967;-82
2021/12/08 03:12:26;;;;;;;;;2.00;2.00;;;;;7.80;59.99;99151.50;5045428;28;45736;-81
2021/12/08 03:14:51;;;;;;;;;7.33;2.67;;;;;7.76;60.74;99145.69;5053384;28;45598;-82
2021/12/08 03:17:17;;;;;;;;;7.67;6.00;;;;;7.83;60.17;99154.63;5064130;28;45555;-81
2021/12/08 03:19:42;;;;;;;;;11.67;8.00;;;;;7.78;60.02;99152.59;5072296;27;46082;-80
2021/12/08 03:22:10;;;;;;;;;5.00;4.00;;;;;7.80;59.35;99149.63;5053831;28;45509;-81
2021/12/08 03:24:39;;;;;;;;;8.67;6.67;;;;;7.80;60.15;99162.41;5074064;27;45811;-80
2021/12/08 03:27:11;;;;;;;;;8.33;7.00;;;;;7.79;60.29;99156.13;5073272;28;45758;-81
2021/12/08 03:30:00;;;;;;;;;4.00;4.00;;;;;7.78;59.39;99158.03;5063949;28;45935;-77
2021/12/08 03:32:36;;;;;;;;;3.00;2.00;;;;;7.75;59.74;99138.53;5054415;28;45909;-78
2021/12/08 03:35:05;;;;;;;;;1.00;1.00;;;;;7.71;59.78;99135.47;5041905;28;45870;-77
2021/12/08 03:37:37;;;;;;;;;2.00;1.00;;;;;7.70;60.23;99122.03;5048227;28;46068;-78
2021/12/08 03:40:12;;;;;;;;;0.67;0.00;;;;;7.75;59.67;99124.91;5074328;28;46176;-78
2021/12/08 03:42:39;;;;;;;;;1.00;0.00;;;;;7.73;60.08;99132.50;5065680;28;45538;-78
2021/12/08 03:45:12;;;;;;;;;2.00;0.67;;;;;7.75;60.60;99133.09;5057425;28;45593;-78
2021/12/08 03:47:42;;;;;;;;;0.00;0.00;;;;;7.75;59.92;99136.66;5053058;28;45505;-79
2021/12/08 03:50:11;;;;;;;;;1.00;1.00;;;;;7.72;59.67;99133.56;5064978;28;46803;-77
2021/12/08 03:52:38;;;;;;;;;1.33;0.33;;;;;7.71;59.05;99140.06;5069079;28;47142;-79
2021/12/08 03:55:06;;;;;;;;;1.33;1.33;;;;;7.62;60.10;99125.06;5045380;28;45688;-78
2021/12/08 03:57:31;;;;;;;;;1.00;1.00;;;;;7.71;60.15;99146.38;5063591;28;45343;-80
2021/12/08 03:59:57;;;;;;;;;0.00;0.00;;;;;7.73;59.62;99146.16;5070622;27;46262;-81
2021/12/08 04:02:23;;;;;;;;;1.33;0.00;;;;;7.72;60.68;99144.47;5053840;28;45875;-79
2021/12/08 04:04:50;;;;;;;;;0.00;0.00;;;;;7.66;60.32;99137.19;5073093;28;45842;-80
2021/12/08 04:07:18;;;;;;;;;3.00;0.00;;;;;7.73;59.80;99149.69;5074839;28;45371;-80
2021/12/08 04:09:47;;;;;;;;;0.33;0.33;;;;;7.71;60.24;99132.72;5070463;28;45989;-77
2021/12/08 04:12:17;;;;;;;;;1.67;0.33;;;;;7.68;60.02;99138.66;5065343;28;45466;-79
2021/12/08 04:14:50;;;;;;;;;0.00;0.00;;;;;7.68;59.86;99135.91;5067500;28;45769;-82
2021/12/08 04:17:21;;;;;;;;;0.33;0.00;;;;;7.68;60.09;99141.38;5068634;28;46013;-80
2021/12/08 04:19:48;;;;;;;;;1.33;0.00;;;;;7.66;60.36;99138.03;5066421;27;45378;-80
2021/12/08 04:22:35;;;;;;;;;0.00;0.00;;;;;7.60;60.11;99134.34;5071355;28;45743;-77
2021/12/08 04:25:11;;;;;;;;;0.00;0.00;;;;;7.65;59.94;99141.84;5072942;28;45449;-82
2021/12/08 04:27:39;;;;;;;;;0.00;0.00;;;;;7.61;60.05;99124.25;5059040;28;46419;-80
2021/12/08 04:30:29;;;;;;;;;0.33;0.33;;;;;7.63;59.74;99127.56;5068090;28;47023;-82
2021/12/08 04:32:56;;;;;;;;;0.00;0.00;;;;;7.66;60.25;99148.94;5065410;28;45780;-82
2021/12/08 04:35:23;;;;;;;;;0.67;0.67;;;;;7.64;60.84;99139.34;5045766;28;45497;-82
2021/12/08 04:37:53;;;;;;;;;1.00;1.00;;;;;7.62;59.81;99133.25;5071645;28;45420;-82
2021/12/08 04:40:43;;;;;;;;;3.00;0.00;;;;;7.65;60.54;99146.44;5069857;28;46232;-80
2021/12/08 04:46:22;;;;;;;;;1.00;1.00;;;;;7.67;60.88;99144.34;5079726;28;45422;-82
2021/12/08 05:08:18;;;;;;;;;0.33;0.00;;;;;7.51;60.47;99141.16;5059524;28;45576;-81
2021/12/08 05:10:46;;;;;;;;;1.33;0.33;;;;;7.57;60.49;99167.53;5073128;28;45699;-81
2021/12/08 05:13:14;;;;;;;;;0.33;0.33;;;;;7.58;59.94;99169.19;5046028;28;46981;-81
2021/12/08 05:15:52;;;;;;;;;1.00;0.00;;;;;7.55;60.04;99161.47;5076048;28;45504;-83
2021/12/08 05:18:26;;;;;;;;;0.00;0.00;;;;;7.59;60.35;99167.31;5075994;27;45707;-83
2021/12/08 05:21:13;;;;;;;;;4.00;1.00;;;;;7.54;60.63;99170.69;5048233;28;45889;-82
2021/12/08 05:23:41;;;;;;;;;1.00;0.00;;;;;7.49;59.81;99165.09;5068248;28;45710;-81
2021/12/08 05:26:16;;;;;;;;;1.00;0.00;;;;;7.50;59.99;99177.69;5059138;28;45959;-80
2021/12/08 05:28:46;;;;;;;;;1.00;1.00;;;;;7.49;60.83;99178.75;5074342;28;45417;-79
2021/12/08 05:31:17;;;;;;;;;1.33;0.00;;;;;7.51;60.08;99187.53;5066084;28;45496;-80
2021/12/08 05:33:44;;;;;;;;;1.00;1.00;;;;;7.50;60.52;99179.56;5063300;28;45350;-81
2021/12/08 05:36:11;;;;;;;;;1.00;1.00;;;;;7.46;59.99;99181.94;5066587;28;46026;-80
2021/12/08 05:38:38;;;;;;;;;0.67;0.67;;;;;7.42;60.24;99186.16;5065369;28;45422;-83
2021/12/08 05:41:12;;;;;;;;;1.67;1.67;;;;;7.38;59.37;99191.25;5042446;28;46270;-81
2021/12/08 05:43:38;;;;;;;;;1.67;0.67;;;;;7.37;60.90;99189.56;5051986;28;47420;-78
2021/12/08 05:46:04;;;;;;;;;2.00;1.00;;;;;7.34;60.33;99183.75;5057380;28;45664;-78
2021/12/08 05:48:32;;;;;;;;;3.33;0.33;;;;;7.31;60.59;99179.56;5057809;28;45933;-79
2021/12/08 05:51:01;;;;;;;;;0.67;0.67;;;;;7.25;61.01;99185.94;5051336;28;46571;-78
2021/12/08 05:53:29;;;;;;;;;2.00;0.00;;;;;7.25;60.85;99196.84;5042360;28;46117;-77
2021/12/08 05:55:56;;;;;;;;;1.00;1.00;;;;;7.22;61.30;99197.28;5058980;28;45426;-78
2021/12/08 05:58:24;;;;;;;;;2.00;1.00;;;;;7.16;61.51;99193.56;5037364;28;46019;-78
2021/12/08 06:00:55;;;;;;;;;0.67;0.67;;;;;7.10;60.88;99178.13;5058147;28;45743;-81
2021/12/08 06:03:21;;;;;;;;;1.00;1.00;;;;;7.11;61.17;99178.94;5054906;28;46457;-77
2021/12/08 06:05:50;;;;;;;;;2.00;1.00;;;;;7.06;61.22;99193.25;5038693;28;45580;-77
2021/12/08 06:08:16;;;;;;;;;1.00;1.00;;;;;7.06;60.84;99182.34;5038432;28;45586;-79
2021/12/08 06:10:43;;;;;;;;;0.00;0.00;;;;;7.08;61.80;99185.69;5057953;28;46357;-80
2021/12/08 06:13:11;;;;;;;;;2.00;1.00;;;;;7.04;61.66;99185.28;5059199;27;46859;-79
2021/12/08 06:15:39;;;;;;;;;2.33;0.00;;;;;7.00;61.42;99173.16;5059931;28;45771;-79
2021/12/08 06:18:05;;;;;;;;;1.67;0.67;;;;;7.00;62.29;99172.34;5054968;28;45642;-77
2021/12/08 06:20:35;;;;;;;;;1.67;1.67;;;;;7.01;61.61;99190.38;5058717;28;45830;-84
2021/12/08 06:23:03;;;;;;;;;2.67;0.67;;;;;7.03;61.82;99183.63;5064140;27;45977;-83
2021/12/08 06:25:33;;;;;;;;;3.00;0.00;;;;;7.03;62.65;99175.44;5048552;28;45748;-84
2021/12/08 06:27:59;;;;;;;;;1.00;0.00;;;;;7.06;61.40;99190.53;5076497;28;45846;-83
2021/12/08 06:30:30;;;;;;;;;0.00;0.00;;;;;7.09;61.57;99197.41;5069597;28;44931;-85
2021/12/08 06:32:57;;;;;;;;;0.00;0.00;;;;;6.96;62.36;99182.00;5067755;28;45658;-80
2021/12/08 06:35:37;;;;;;;;;4.67;1.00;;;;;7.06;61.54;99204.16;5072358;28;46091;-81
2021/12/08 06:38:05;;;;;;;;;1.00;0.00;;;;;7.07;61.34;99209.38;5068711;28;46341;-80
2021/12/08 06:40:38;;;;;;;;;3.00;0.00;;;;;7.08;62.02;99221.13;5042690;28;46410;-81
2021/12/08 06:43:07;;;;;;;;;4.00;0.33;;;;;7.08;61.44;99215.69;5075644;28;45434;-82
2021/12/08 06:45:37;;;;;;;;;1.00;1.00;;;;;7.08;61.17;99221.13;5067524;28;45474;-79
2021/12/08 06:48:07;;;;;;;;;2.00;1.00;;;;;7.06;62.01;99204.97;5075661;28;45489;-82
2021/12/08 06:51:01;;;;;;;;;1.00;1.00;;;;;7.11;62.11;99209.78;5074024;27;45474;-83
2021/12/08 06:53:28;;;;;;;;;3.33;1.00;;;;;7.12;62.11;99216.06;5056203;28;47030;-81
2021/12/08 06:56:02;;;;;;;;;0.00;0.00;;;;;7.11;61.59;99212.50;5049278;28;45694;-82
2021/12/08 06:58:30;;;;;;;;;4.00;1.00;;;;;7.09;61.91;99211.88;5070736;28;45840;-80
2021/12/08 07:01:13;;;;;;;;;1.00;1.00;;;;;7.08;61.86;99207.50;5065237;27;45953;-82
2021/12/08 07:06:48;;;;;;;;;3.00;3.00;;;;;7.09;61.49;99217.31;5057994;27;45560;-81
2021/12/08 07:09:31;;;;;;;;;1.67;1.33;;;;;7.11;61.52;99214.38;5056092;28;45668;-79
2021/12/08 07:12:00;;;;;;;;;3.00;1.50;;;;;7.10;62.03;99216.28;5062372;28;46204;-73
2021/12/08 07:14:30;;;;;;;;;0.33;0.33;;;;;7.10;61.61;99216.28;5041448;28;48187;-82
2021/12/08 07:17:02;;;;;;;;;2.00;1.00;;;;;7.10;61.61;99218.19;5048794;28;45983;-74
2021/12/08 07:19:38;;;;;;;;;2.33;1.00;;;;;7.11;61.49;99234.31;5068252;28;45976;-73
2021/12/08 07:22:07;;;;;;;;;0.67;0.67;;;;;7.12;61.07;99230.50;5062282;28;46925;-85
2021/12/08 07:24:38;;;;;;;;;4.00;1.00;;;;;7.08;61.17;99223.84;5062439;28;46808;-82
2021/12/08 07:27:10;;;;;;;;;11.00;1.00;;;;;7.09;61.38;99230.97;5049767;28;45418;-85
2021/12/08 07:29:39;;;;;;;;;0.67;0.00;;;;;7.14;62.10;99239.31;5067587;28;45888;-84
2021/12/08 07:32:15;;;;;;;;;3.67;1.00;;;;;7.12;61.80;99246.88;5053571;27;45784;-72
2021/12/08 07:34:41;;;;;;;;;1.00;1.00;;;;;7.11;61.60;99256.13;5065183;28;45509;-75
2021/12/08 07:37:12;;;;;;;;;2.00;1.00;;;;;7.18;61.19;99258.78;5050339;28;45842;-84
2021/12/08 07:39:44;;;;;;;;;1.00;1.00;;;;;7.20;60.85;99265.69;5065258;28;45415;-82
2021/12/08 07:42:21;;;;;;;;;0.67;0.67;;;;;7.23;61.24;99278.88;5065823;28;45965;-83
2021/12/08 07:44:50;;;;;;;;;0.33;0.33;;;;;7.25;61.42;99279.47;5071108;27;45913;-85
2021/12/08 07:47:19;;;;;;;;;2.33;1.00;;;;;7.30;61.37;99276.06;5054030;28;45587;-78
2021/12/08 07:49:53;;;;;;;;;1.00;0.00;;;;;7.25;60.70;99267.75;5069465;28;45565;-74
2021/12/08 07:52:23;;;;;;;;;1.00;0.00;;;;;7.31;60.53;99285.09;5063874;28;45474;-76
2021/12/08 07:54:49;;;;;;;;;4.00;1.00;;;;;7.39;60.27;99287.53;5048923;28;46851;-82
2021/12/08 07:57:26;;;;;;;;;2.00;1.00;;;;;7.41;60.51;99288.97;5058889;28;45771;-84
2021/12/08 07:59:55;;;;;;;;;1.67;1.00;;;;;7.43;60.71;99288.75;5063022;27;45732;-74
2021/12/08 08:02:25;;;;;;;;;8.33;3.00;;;;;7.49;61.05;99276.94;5050860;28;46115;-83
2021/12/08 08:04:52;;;;;;;;;2.00;2.00;;;;;7.52;60.90;99270.22;5066153;28;46657;-86
2021/12/08 08:07:19;;;;;;;;;3.67;2.67;;;;;7.61;60.50;99260.66;5053368;28;45934;-75
2021/12/08 08:09:48;;;;;;;;;4.00;1.67;;;;;7.61;60.53;99274.31;5067866;28;45650;-76
2021/12/08 08:12:19;;;;;;;;;2.33;1.00;;;;;7.60;60.13;99273.50;5071831;28;46341;-83
2021/12/08 08:14:51;;;;;;;;;1.33;1.33;;;;;7.67;60.35;99265.22;5059593;28;47338;-72
2021/12/08 08:17:25;;;;;;;;;0.33;0.33;;;;;7.66;61.11;99270.91;5076357;28;44911;-81
2021/12/08 08:19:53;;;;;;;;;2.00;2.00;;;;;7.71;59.71;99266.44;5072027;28;45954;-83
2021/12/08 08:22:24;;;;;;;;;3.67;3.67;;;;;7.80;60.05;99264.25;5047147;28;45929;-74
2021/12/08 08:24:51;;;;;;;;;3.67;2.00;;;;;7.85;60.46;99269.84;5068739;28;45904;-80
2021/12/08 08:27:17;;;;;;;;;2.33;1.00;;;;;7.91;61.92;99276.28;5078536;27;45566;-82
2021/12/08 08:29:43;;;;;;;;;4.00;1.33;;;;;8.03;60.59;99284.56;5054686;27;45470;-74
2021/12/08 08:32:21;;;;;;;;;1.00;1.00;;;;;8.14;60.23;99297.44;5086352;27;45923;-83
2021/12/08 08:34:53;;;;;;;;;3.33;1.00;;;;;8.21;59.31;99303.66;5081941;28;45780;-85
2021/12/08 08:37:20;;;;;;;;;2.00;1.00;;;;;8.23;59.02;99285.16;5068529;28;45366;-81
2021/12/08 08:39:59;;;;;;;;;3.67;3.00;;;;;8.57;59.09;99309.31;5056535;28;45740;-82
2021/12/08 08:42:37;;;;;;;;;6.00;4.00;;;;;9.25;57.20;99307.25;5074813;27;45408;-83
2021/12/08 08:45:12;;;;;;;;;8.00;5.67;;;;;9.94;55.25;99302.03;5051960;28;48220;-82
2021/12/08 08:47:50;;;;;;;;;6.00;5.00;;;;;10.76;54.16;99309.19;5077656;27;45415;-76
2021/12/08 08:50:23;;;;;;;;;4.67;4.00;;;;;11.45;52.02;99301.81;5073624;27;46973;-82
2021/12/08 08:52:51;;;;;;;;;6.67;4.67;;;;;12.24;50.01;99303.53;5073366;27;46941;-80
2021/12/08 08:55:27;;;;;;;;;4.67;3.33;;;;;12.83;48.41;99305.59;5073866;27;46968;-82
2021/12/08 08:57:53;;;;;;;;;2.33;2.00;;;;;13.45;47.38;99300.66;5074157;28;45724;-83
2021/12/08 09:00:21;;;;;;;;;3.00;2.00;;;;;13.95;45.99;99302.13;5054253;28;45462;-74
2021/12/08 09:02:49;;;;;;;;;4.00;4.00;;;;;14.47;44.73;99299.56;5067756;28;45475;-76
2021/12/08 09:05:24;;;;;;;;;4.67;3.67;;;;;14.93;43.97;99299.72;5071324;27;46302;-73
2021/12/08 09:07:55;;;;;;;;;0.67;0.67;;;;;15.33;42.63;99302.81;5074745;28;45787;-84
2021/12/08 09:10:28;;;;;;;;;1.00;0.67;;;;;15.60;41.63;99297.00;5073019;27;45438;-82
2021/12/08 09:13:05;;;;;;;;;3.33;1.00;;;;;16.00;41.45;99331.25;5055830;28;45992;-83
2021/12/08 09:15:38;;;;;;;;;0.67;0.67;;;;;16.27;40.02;99307.09;5064209;28;45473;-73
2021/12/08 09:18:14;;;;;;;;;2.00;0.67;;;;;16.46;39.27;99310.06;5072093;28;45742;-74
2021/12/08 09:20:56;;;;;;;;;1.33;0.00;;;;;16.61;39.19;99318.28;5066700;28;45825;-76
2021/12/08 09:23:31;;;;;;;;;5.00;0.00;;;;;16.85;38.56;99318.44;5072967;28;45718;-74
2021/12/08 09:26:02;;;;;;;;;2.67;2.00;;;;;17.01;37.83;99322.00;5073505;28;46351;-76
2021/12/08 09:28:38;;;;;;;;;3.67;1.67;;;;;17.13;37.28;99310.56;5069258;28;45985;-85
2021/12/08 09:31:19;;;;;;;;;1.33;1.33;;;;;17.31;37.17;99319.31;5059094;28;45526;-76
2021/12/08 09:33:56;;;;;;;;;1.00;0.00;;;;;17.21;37.87;99326.53;5072382;28;45394;-84
2021/12/08 09:36:30;;;;;;;;;2.00;0.00;;;;;17.10;37.59;99336.06;5077729;28;45606;-74
2021/12/08 09:39:12;;;;;;;;;1.00;0.33;;;;;16.87;38.52;99329.25;5073397;27;45759;-75
2021/12/08 09:41:42;;;;;;;;;1.33;0.00;;;;;16.69;38.01;99334.31;5067688;28;45376;-75
2021/12/08 09:44:19;;;;;;;;;1.67;0.33;;;;;16.89;37.37;99338.94;5075403;28;45625;-84
2021/12/08 09:46:47;;;;;;;;;3.67;1.00;;;;;17.02;37.07;99334.72;5074172;28;45434;-84
2021/12/08 09:49:23;;;;;;;;;4.00;3.00;;;;;17.07;36.74;99331.91;5082347;28;45493;-82
2021/12/08 09:51:50;;;;;;;;;1.00;1.00;;;;;17.20;36.96;99324.91;5081158;28;45593;-83
2021/12/08 09:54:16;;;;;;;;;1.00;1.00;;;;;17.32;36.85;99332.88;5081954;28;45692;-83
2021/12/08 09:56:45;;;;;;;;;17.00;9.67;;;;;17.51;36.14;99334.94;5060380;28;45856;-84
2021/12/08 09:59:11;;;;;;;;;5.00;3.33;;;;;17.55;35.60;99328.50;5077704;28;45927;-81
2021/12/08 10:01:41;;;;;;;;;1.33;1.33;;;;;17.68;36.37;99323.41;5074193;27;45992;-82
2021/12/08 10:04:07;;;;;;;;;0.00;0.00;;;;;17.86;35.97;99310.75;5077655;28;45941;-82
2021/12/08 10:06:33;;;;;;;;;3.00;1.00;;;;;18.06;35.63;99313.34;5076583;28;46117;-83
2021/12/08 10:08:59;;;;;;;;;2.67;1.00;;;;;18.14;34.56;99321.03;5077224;28;45404;-82
2021/12/08 10:11:32;;;;;;;;;1.00;1.00;;;;;18.07;34.59;99320.56;5065653;28;46975;-75
2021/12/08 10:13:59;;;;;;;;;0.00;0.00;;;;;18.01;34.54;99327.28;5058954;27;45795;-75
2021/12/08 10:16:26;;;;;;;;;1.33;0.00;;;;;17.93;34.32;99319.59;5061524;28;46290;-76
2021/12/08 10:18:53;;;;;;;;;3.00;1.00;;;;;17.81;34.79;99325.50;5042711;27;46099;-83
2021/12/08 10:21:20;;;;;;;;;0.33;0.33;;;;;17.74;35.16;99320.31;5061781;28;45944;-81
2021/12/08 10:23:48;;;;;;;;;1.67;0.00;;;;;17.62;35.27;99306.81;5069605;28;45474;-83
2021/12/08 10:26:20;;;;;;;;;1.67;1.67;;;;;17.48;35.40;99303.06;5065401;28;45909;-80
2021/12/08 10:28:49;;;;;;;;;1.00;1.00;;;;;17.32;35.34;99316.25;5051435;28;45855;-81
2021/12/08 10:31:15;;;;;;;;;3.00;2.00;;;;;17.26;35.79;99317.38;5070247;27;45521;-80
2021/12/08 10:33:53;;;;;;;;;2.00;0.00;;;;;17.17;36.52;99319.09;5072901;28;45803;-83
2021/12/08 10:39:29;;;;;;;;;1.50;0.00;;;;;16.87;35.75;99309.88;5076516;28;45658;-83
2021/12/08 10:42:03;;;;;;;;;1.00;1.00;;;;;16.58;36.83;99299.50;5055958;28;47122;-84
2021/12/08 10:44:53;;;;;;;;;0.00;0.00;;;;;16.19;37.35;99305.75;5073783;28;45909;-82
2021/12/08 10:47:28;;;;;;;;;2.00;1.00;;;;;15.67;38.06;99294.78;5046101;28;47414;-82
2021/12/08 10:55:18;;;;;;;;;1.67;0.00;;;;;14.28;40.63;99304.72;5066472;28;45597;-84
2021/12/08 10:57:47;;;;;;;;;1.67;0.67;;;;;13.99;41.35;99307.09;5070290;28;45794;-82
2021/12/08 11:00:17;;;;;;;;;2.67;0.00;;;;;13.87;41.92;99307.28;5063321;28;45513;-82
2021/12/08 11:03:00;;;;;;;;;0.67;0.67;;;;;13.77;42.75;99319.06;5063337;27;45600;-81
2021/12/08 11:05:25;;;;;;;;;2.33;1.33;;;;;13.59;42.09;99301.03;5069439;28;45687;-80
2021/12/08 11:08:03;;;;;;;;;2.67;2.00;;;;;13.51;42.14;99305.09;5066648;27;45779;-82
2021/12/08 11:10:30;;;;;;;;;2.00;2.00;;;;;13.49;41.90;99307.31;5066987;28;45732;-84
2021/12/08 11:12:58;;;;;;;;;2.67;1.00;;;;;13.45;42.77;99313.63;5074206;28;45504;-82
2021/12/08 11:15:27;;;;;;;;;3.67;2.00;;;;;13.40;42.28;99317.16;5067133;28;45640;-81
2021/12/08 11:18:12;;;;;;;;;3.67;2.67;;;;;13.29;42.62;99315.38;5078292;28;46202;-80
2021/12/08 11:20:49;;;;;;;;;5.00;3.00;;;;;13.17;43.30;99301.78;5068334;28;45588;-79
2021/12/08 11:23:28;;;;;;;;;7.67;3.67;;;;;13.10;43.14;99313.00;5079189;27;45463;-83
2021/12/08 11:25:56;;;;;;;;;2.00;2.00;;;;;13.01;43.18;99315.41;5079630;28;45559;-83
2021/12/08 11:28:30;;;;;;;;;3.33;1.00;;;;;12.97;44.30;99318.94;5060139;28;45499;-83
2021/12/08 11:31:08;;;;;;;;;4.33;2.67;;;;;12.88;44.09;99321.31;5077534;28;45939;-84
2021/12/08 11:33:37;;;;;;;;;1.00;1.00;;;;;12.78;43.73;99308.28;5073874;28;46015;-83
2021/12/08 11:36:07;;;;;;;;;4.33;2.00;;;;;12.63;43.95;99294.38;5078497;28;45287;-82
2021/12/08 11:38:33;;;;;;;;;1.33;1.33;;;;;12.68;43.91;99308.19;5070438;27;45553;-83
2021/12/08 11:40:58;;;;;;;;;6.00;2.67;;;;;12.56;44.55;99302.84;5063572;27;46040;-83
2021/12/08 11:43:30;;;;;;;;;3.00;1.00;;;;;12.55;44.41;99303.91;5051170;28;45506;-84
2021/12/08 11:46:17;;;;;;;;;1.33;1.00;;;;;12.47;44.66;99310.69;5045630;28;46389;-82
2021/12/08 11:49:10;;;;;;;;;4.33;1.00;;;;;12.44;45.42;99313.97;5048865;27;46918;-84
2021/12/08 11:51:41;;;;;;;;;4.67;2.00;;;;;12.36;44.92;99311.66;5064948;27;45539;-82
2021/12/08 11:54:07;;;;;;;;;2.33;1.00;;;;;12.30;45.03;99312.69;5080089;27;45588;-81
2021/12/08 11:56:39;;;;;;;;;1.33;1.00;;;;;12.22;45.00;99313.13;5041454;28;46247;-74
2021/12/08 11:59:10;;;;;;;;;1.67;1.67;;;;;12.14;45.78;99315.25;5066228;28;46715;-73
2021/12/08 12:01:37;;;;;;;;;1.67;1.67;;;;;12.21;45.53;99312.28;5055459;28;45978;-74
2021/12/08 12:04:05;;;;;;;;;1.67;1.00;;;;;12.22;45.94;99310.38;5060125;27;47676;-74
2021/12/08 12:06:32;;;;;;;;;10.00;6.00;;;;;12.29;46.90;99327.50;5058776;28;45994;-74
2021/12/08 12:08:59;;;;;;;;;4.33;1.67;;;;;12.36;45.77;99320.75;5064763;28;46448;-75
2021/12/08 12:11:29;;;;;;;;;6.33;2.00;;;;;12.41;45.57;99313.63;5061127;28;45856;-76
2021/12/08 12:13:57;;;;;;;;;4.00;4.00;;;;;12.51;45.96;99320.09;5060940;27;45509;-76
2021/12/08 12:16:23;;;;;;;;;2.00;0.33;;;;;12.44;45.42;99311.22;5063192;28;45818;-76
2021/12/08 12:18:52;;;;;;;;;3.00;1.67;;;;;12.51;45.44;99325.59;5066878;27;46561;-77
2021/12/08 12:21:36;;;;;;;;;2.33;1.33;;;;;12.43;44.85;99339.78;5061013;28;45941;-76
2021/12/08 12:24:52;;;;;;;;;9.33;6.67;;;;;12.46;45.83;99352.19;5063236;27;45736;-79
2021/12/08 12:27:53;;;;;;;;;4.00;2.67;;;;;12.46;45.73;99354.94;5002470;28;45505;-76
2021/12/08 12:30:32;;;;;;;;;2.00;2.00;;;;;12.46;45.63;99361.28;5061442;28;45692;-74
2021/12/08 12:32:58;;;;;;;;;4.00;2.00;;;;;12.52;45.83;99349.25;5061536;27;46022;-76
2021/12/08 12:35:32;;;;;;;;;6.33;5.00;;;;;12.54;45.03;99338.00;5065383;28;45873;-76
2021/12/08 12:38:07;;;;;;;;;3.33;2.00;;;;;12.65;45.18;99358.19;5052134;28;46642;-74
2021/12/08 12:40:40;;;;;;;;;2.33;1.33;;;;;12.75;44.83;99352.81;5058948;28;46189;-76
2021/12/08 12:43:07;;;;;;;;;1.00;1.00;;;;;12.73;45.85;99349.50;5066527;28;45944;-83
2021/12/08 12:45:43;;;;;;;;;0.33;0.00;;;;;12.65;44.61;99355.44;5060460;28;45841;-79